West Hallock, Illinois
Current Conditions -  °F | °C
As of 2:15 PM on Sunday 23 Nov 2014 (Local Time) from KC75 Reporting Station
Drizzle Drizzle  
Wind Chill: 52°   Ceiling: 1200
Heat Index: 52°   Visibility: 10mi
Dew Point: 48°   Wind: 8mph
Humidity: 87%   Direction: 160°SSE
Pressure: 29.44"   Gusts: NA
Location:  40.9686°N, 89.597°W
Report Text: KC75 232015Z AUTO 16007KT 10SM DZ OVC012 11/09 A2944 RMK AO2 T01100089
Loading
Personal Weather Stations






























Interactive Weather Map New forecast layout! Learn more

10-Day Weather Forecast

Advertisements
Track Severe Weather on mobile